Moundville, AL

10:27 PM CST on March 03, 2015 (GMT -0600)
Ridgehaven | Change Station
CLOSE
Current Station
Personal Weather Station
Location: Tuscaloosa, AL
Elevation: 187 ft
Nearby Weather Stations

Elev 187 ft 33.11 °N, 87.57 °W | Updated 15 minutes ago

Partly Cloudy
Partly Cloudy
65.3 °F
Feels Like 65.3 °F
N
1.7
Wind Variable Wind from West

Today
High -- | Low -- °F
--% Chance of Precip.
Yesterday
High -- | Low -- °F
Precip. -- in
6:16 AM 5:48 PM
Waxing Gibbous, 98% visible
Pressure 30.01 in
Visibility 10.0 miles
Clouds Mostly Cloudy 6500 ft
Mostly Cloudy 8000 ft
Dew Point 64 °F
Humidity 96%
Rainfall 0.05 in
Snow Depth Not available.
UV 0 out of 12
Pollen 5.30 out of 12
Air Quality Not available.
Flu Activity Not available.
METAR KTCL 040353Z AUTO 19007KT 10SM BKN065 BKN080 19/16 A3002 RMK AO2 SLP163 T01890161

More Conditions Fewer Conditions

Pressure 30.01 in
Visibility 10.0 miles
Clouds Mostly Cloudy 6500 ft
Mostly Cloudy 8000 ft
Dew Point 64 °F
Humidity 96%
Rainfall 0.05 in
Snow Depth Not available.
UV 0 out of 12
Pollen 5.30 out of 12
Air Quality Not available.
Flu Activity Not available.
METAR KTCL 040353Z AUTO 19007KT 10SM BKN065 BKN080 19/16 A3002 RMK AO2 SLP163 T01890161

More Conditions Fewer Conditions

10-Day Weather Forecast

Almanac

Astronomy

Mar. 03, 2015 Rise Set
Actual Time
Civil Twilight
Nautical Twilight
Astronomical Twilight
Moon
Length of Visible Light
Length of Day
Tomorrow will be .
, % of the Moon is Illuminated

Today's Extremes

State Highs State Lows

Community

WunderPhotos

Upload Photos

1,802,383 photos uploaded!

WunderBlogs® & News

Nearby

Air Quality

  Air Quality AQ Index Pollutant
Not available.

Snow Depth

Station Depth Elevation

Earthquake Activity

City Distance Mag. Time & Date
Minimum magnitude displayed is 2.5.

Coastal Water Temperatures

Place Temperature

Nearby Weather Stations